Tonder, Denmark
Current Conditions -  °F | °C
As of 9:20 PM on Saturday 25 Oct 2014 (Local Time) from EDXW Reporting Station
Drizzle Drizzle  
Wind Chill: 55°   Ceiling: 3700
Heat Index: 55°   Visibility: 6mi
Dew Point: 48°   Wind: 14mph
Humidity: 77%   Direction: 230°SW
Pressure: 30.03"   Gusts: NA
Location:  54.93°N, 8.87°E
Report Text: EDXW 251920Z 23012KT 9999 -DZ SCT024 BKN037 13/09 Q1017 RMK ATIS DEL
Loading
Personal Weather Stations






























Interactive Weather Map
Tropical Storm Tracking
New forecast layout! Learn more

10-Day Weather Forecast

Advertisements
Track Severe Weather on mobile